sensor_id;sensor_type;location;lat;lon;timestamp;P1;durP1;ratioP1;P2;durP2;ratioP2
51927;SDS011;37953;52.806;18.270;2023-04-25T00:00:05;9.68;;;4.85;;
51927;SDS011;37953;52.806;18.270;2023-04-25T00:02:52;25.10;;;5.90;;
51927;SDS011;37953;52.806;18.270;2023-04-25T00:05:18;16.55;;;5.38;;
51927;SDS011;37953;52.806;18.270;2023-04-25T00:07:45;18.25;;;5.47;;
51927;SDS011;37953;52.806;18.270;2023-04-25T00:10:11;14.52;;;5.10;;
51927;SDS011;37953;52.806;18.270;2023-04-25T00:12:37;16.67;;;4.80;;
51927;SDS011;37953;52.806;18.270;2023-04-25T00:15:04;18.63;;;5.55;;
51927;SDS011;37953;52.806;18.270;2023-04-25T00:17:37;19.38;;;5.15;;
51927;SDS011;37953;52.806;18.270;2023-04-25T00:20:06;7.40;;;4.10;;
51927;SDS011;37953;52.806;18.270;2023-04-25T00:22:35;11.25;;;3.90;;
51927;SDS011;37953;52.806;18.270;2023-04-25T00:25:04;10.43;;;4.20;;
51927;SDS011;37953;52.806;18.270;2023-04-25T00:27:30;6.68;;;3.40;;
51927;SDS011;37953;52.806;18.270;2023-04-25T00:29:56;6.45;;;3.42;;
51927;SDS011;37953;52.806;18.270;2023-04-25T00:32:22;12.23;;;3.80;;
51927;SDS011;37953;52.806;18.270;2023-04-25T00:34:48;7.70;;;3.58;;
51927;SDS011;37953;52.806;18.270;2023-04-25T00:37:14;6.97;;;3.53;;
51927;SDS011;37953;52.806;18.270;2023-04-25T00:39:40;7.00;;;3.60;;
51927;SDS011;37953;52.806;18.270;2023-04-25T00:42:06;7.03;;;3.40;;
51927;SDS011;37953;52.806;18.270;2023-04-25T00:44:33;5.82;;;3.13;;
51927;SDS011;37953;52.806;18.270;2023-04-25T00:47:01;10.68;;;3.25;;
51927;SDS011;37953;52.806;18.270;2023-04-25T00:49:36;5.72;;;2.90;;
51927;SDS011;37953;52.806;18.270;2023-04-25T00:52:02;10.77;;;3.22;;
51927;SDS011;37953;52.806;18.270;2023-04-25T00:54:29;5.40;;;2.92;;
51927;SDS011;37953;52.806;18.270;2023-04-25T00:56:56;91.47;;;7.25;;
51927;SDS011;37953;52.806;18.270;2023-04-25T00:59:22;7.32;;;2.88;;
51927;SDS011;37953;52.806;18.270;2023-04-25T01:01:56;8.35;;;3.00;;
51927;SDS011;37953;52.806;18.270;2023-04-25T01:04:22;12.20;;;3.20;;
51927;SDS011;37953;52.806;18.270;2023-04-25T01:06:49;12.70;;;3.33;;
51927;SDS011;37953;52.806;18.270;2023-04-25T01:09:15;6.28;;;3.22;;
51927;SDS011;37953;52.806;18.270;2023-04-25T01:11:41;11.50;;;2.92;;
51927;SDS011;37953;52.806;18.270;2023-04-25T01:14:07;6.22;;;2.80;;
51927;SDS011;37953;52.806;18.270;2023-04-25T01:16:33;11.50;;;2.45;;
51927;SDS011;37953;52.806;18.270;2023-04-25T01:18:59;8.98;;;2.90;;
51927;SDS011;37953;52.806;18.270;2023-04-25T01:21:25;9.82;;;3.38;;
51927;SDS011;37953;52.806;18.270;2023-04-25T01:23:53;13.18;;;2.90;;
51927;SDS011;37953;52.806;18.270;2023-04-25T01:26:21;8.88;;;2.90;;
51927;SDS011;37953;52.806;18.270;2023-04-25T01:28:48;6.57;;;2.42;;
51927;SDS011;37953;52.806;18.270;2023-04-25T01:31:15;6.90;;;2.38;;
51927;SDS011;37953;52.806;18.270;2023-04-25T01:33:42;7.93;;;2.60;;
51927;SDS011;37953;52.806;18.270;2023-04-25T01:36:08;10.23;;;2.63;;
51927;SDS011;37953;52.806;18.270;2023-04-25T01:38:34;9.43;;;2.58;;
51927;SDS011;37953;52.806;18.270;2023-04-25T01:41:01;14.45;;;2.97;;
51927;SDS011;37953;52.806;18.270;2023-04-25T01:43:27;14.60;;;2.92;;
51927;SDS011;37953;52.806;18.270;2023-04-25T01:45:53;5.88;;;2.13;;
51927;SDS011;37953;52.806;18.270;2023-04-25T01:48:19;6.80;;;2.33;;
51927;SDS011;37953;52.806;18.270;2023-04-25T01:50:45;5.43;;;2.20;;
51927;SDS011;37953;52.806;18.270;2023-04-25T01:53:11;7.22;;;2.00;;
51927;SDS011;37953;52.806;18.270;2023-04-25T01:55:38;5.45;;;2.13;;
51927;SDS011;37953;52.806;18.270;2023-04-25T01:58:04;11.88;;;2.03;;
51927;SDS011;37953;52.806;18.270;2023-04-25T02:00:35;4.65;;;1.77;;
51927;SDS011;37953;52.806;18.270;2023-04-25T02:03:04;6.28;;;1.80;;
51927;SDS011;37953;52.806;18.270;2023-04-25T02:05:42;7.50;;;1.90;;
51927;SDS011;37953;52.806;18.270;2023-04-25T02:08:08;7.95;;;1.85;;
51927;SDS011;37953;52.806;18.270;2023-04-25T02:10:35;6.95;;;1.80;;
51927;SDS011;37953;52.806;18.270;2023-04-25T02:13:01;13.40;;;1.70;;
51927;SDS011;37953;52.806;18.270;2023-04-25T02:15:27;2.28;;;1.20;;
51927;SDS011;37953;52.806;18.270;2023-04-25T02:17:53;5.53;;;1.60;;
51927;SDS011;37953;52.806;18.270;2023-04-25T02:20:22;7.50;;;1.50;;
51927;SDS011;37953;52.806;18.270;2023-04-25T02:22:50;5.65;;;1.90;;
51927;SDS011;37953;52.806;18.270;2023-04-25T02:25:17;9.75;;;1.80;;
51927;SDS011;37953;52.806;18.270;2023-04-25T02:27:45;9.60;;;1.65;;
51927;SDS011;37953;52.806;18.270;2023-04-25T02:30:12;19.63;;;2.10;;
51927;SDS011;37953;52.806;18.270;2023-04-25T02:32:38;8.57;;;1.60;;
51927;SDS011;37953;52.806;18.270;2023-04-25T02:35:05;14.68;;;1.73;;
51927;SDS011;37953;52.806;18.270;2023-04-25T02:37:32;8.50;;;1.40;;
51927;SDS011;37953;52.806;18.270;2023-04-25T02:40:05;17.58;;;1.85;;
51927;SDS011;37953;52.806;18.270;2023-04-25T02:42:32;2.92;;;1.27;;
51927;SDS011;37953;52.806;18.270;2023-04-25T02:44:58;13.85;;;1.70;;
51927;SDS011;37953;52.806;18.270;2023-04-25T02:47:24;9.25;;;1.20;;
51927;SDS011;37953;52.806;18.270;2023-04-25T02:49:50;19.95;;;2.08;;
51927;SDS011;37953;52.806;18.270;2023-04-25T02:52:16;14.90;;;1.65;;
51927;SDS011;37953;52.806;18.270;2023-04-25T02:54:42;13.10;;;1.58;;
51927;SDS011;37953;52.806;18.270;2023-04-25T02:57:07;8.73;;;1.30;;
51927;SDS011;37953;52.806;18.270;2023-04-25T02:59:34;17.85;;;1.63;;
51927;SDS011;37953;52.806;18.270;2023-04-25T03:02:00;13.00;;;1.65;;
51927;SDS011;37953;52.806;18.270;2023-04-25T03:04:26;14.02;;;1.60;;
51927;SDS011;37953;52.806;18.270;2023-04-25T03:06:53;7.20;;;1.40;;
51927;SDS011;37953;52.806;18.270;2023-04-25T03:09:19;6.55;;;1.35;;
51927;SDS011;37953;52.806;18.270;2023-04-25T03:11:45;16.15;;;1.52;;
51927;SDS011;37953;52.806;18.270;2023-04-25T03:14:11;20.33;;;1.98;;
51927;SDS011;37953;52.806;18.270;2023-04-25T03:16:38;16.92;;;1.55;;
51927;SDS011;37953;52.806;18.270;2023-04-25T03:19:04;17.92;;;1.75;;
51927;SDS011;37953;52.806;18.270;2023-04-25T03:21:31;14.13;;;1.45;;
51927;SDS011;37953;52.806;18.270;2023-04-25T03:23:58;10.10;;;1.25;;
51927;SDS011;37953;52.806;18.270;2023-04-25T03:54:58;13.70;;;1.52;;
51927;SDS011;37953;52.806;18.270;2023-04-25T03:57:24;3.25;;;1.20;;
51927;SDS011;37953;52.806;18.270;2023-04-25T03:59:50;2.13;;;0.80;;
51927;SDS011;37953;52.806;18.270;2023-04-25T04:02:17;13.02;;;1.73;;
51927;SDS011;37953;52.806;18.270;2023-04-25T04:04:43;2.97;;;1.27;;
51927;SDS011;37953;52.806;18.270;2023-04-25T04:07:09;8.73;;;1.60;;
51927;SDS011;37953;52.806;18.270;2023-04-25T04:09:35;2.75;;;1.20;;
51927;SDS011;37953;52.806;18.270;2023-04-25T04:12:01;1.85;;;1.20;;
51927;SDS011;37953;52.806;18.270;2023-04-25T04:14:28;1.20;;;1.10;;
51927;SDS011;37953;52.806;18.270;2023-04-25T04:17:00;3.72;;;1.17;;
51927;SDS011;37953;52.806;18.270;2023-04-25T04:19:26;2.08;;;1.20;;
51927;SDS011;37953;52.806;18.270;2023-04-25T04:21:52;3.20;;;1.65;;
51927;SDS011;37953;52.806;18.270;2023-04-25T04:24:18;4.20;;;1.90;;
51927;SDS011;37953;52.806;18.270;2023-04-25T04:26:44;27.13;;;2.17;;
51927;SDS011;37953;52.806;18.270;2023-04-25T04:29:11;29.73;;;2.83;;
51927;SDS011;37953;52.806;18.270;2023-04-25T04:31:37;26.98;;;2.35;;
51927;SDS011;37953;52.806;18.270;2023-04-25T04:34:03;20.08;;;2.15;;
51927;SDS011;37953;52.806;18.270;2023-04-25T04:36:29;26.20;;;2.47;;
51927;SDS011;37953;52.806;18.270;2023-04-25T04:38:55;30.95;;;2.65;;
51927;SDS011;37953;52.806;18.270;2023-04-25T04:41:22;18.15;;;1.95;;
51927;SDS011;37953;52.806;18.270;2023-04-25T04:43:47;16.23;;;3.28;;
51927;SDS011;37953;52.806;18.270;2023-04-25T04:46:13;23.08;;;4.22;;
51927;SDS011;37953;52.806;18.270;2023-04-25T04:48:39;18.98;;;3.55;;
51927;SDS011;37953;52.806;18.270;2023-04-25T04:51:06;16.95;;;2.92;;
51927;SDS011;37953;52.806;18.270;2023-04-25T04:53:32;21.15;;;2.72;;
51927;SDS011;37953;52.806;18.270;2023-04-25T04:55:58;8.43;;;1.73;;
51927;SDS011;37953;52.806;18.270;2023-04-25T04:58:23;7.57;;;1.88;;
51927;SDS011;37953;52.806;18.270;2023-04-25T05:00:50;6.88;;;1.80;;
51927;SDS011;37953;52.806;18.270;2023-04-25T05:03:15;4.60;;;2.08;;
51927;SDS011;37953;52.806;18.270;2023-04-25T05:05:42;3.90;;;1.80;;
51927;SDS011;37953;52.806;18.270;2023-04-25T05:08:07;2.90;;;2.10;;
51927;SDS011;37953;52.806;18.270;2023-04-25T05:10:33;4.35;;;1.70;;
51927;SDS011;37953;52.806;18.270;2023-04-25T05:12:59;3.40;;;1.75;;
51927;SDS011;37953;52.806;18.270;2023-04-25T05:15:25;3.22;;;1.60;;
51927;SDS011;37953;52.806;18.270;2023-04-25T05:17:51;3.85;;;1.92;;
51927;SDS011;37953;52.806;18.270;2023-04-25T05:20:17;9.02;;;1.98;;
51927;SDS011;37953;52.806;18.270;2023-04-25T05:22:46;4.15;;;2.30;;
51927;SDS011;37953;52.806;18.270;2023-04-25T05:25:12;9.95;;;2.67;;
51927;SDS011;37953;52.806;18.270;2023-04-25T05:27:41;24.58;;;3.80;;
51927;SDS011;37953;52.806;18.270;2023-04-25T05:30:07;23.02;;;4.78;;
51927;SDS011;37953;52.806;18.270;2023-04-25T05:32:34;15.35;;;3.33;;
51927;SDS011;37953;52.806;18.270;2023-04-25T05:35:00;13.38;;;2.85;;
51927;SDS011;37953;52.806;18.270;2023-04-25T05:37:26;24.58;;;4.15;;
51927;SDS011;37953;52.806;18.270;2023-04-25T05:39:52;25.13;;;4.10;;
51927;SDS011;37953;52.806;18.270;2023-04-25T05:42:18;24.38;;;3.50;;
51927;SDS011;37953;52.806;18.270;2023-04-25T05:44:44;18.55;;;3.53;;
51927;SDS011;37953;52.806;18.270;2023-04-25T05:47:10;18.58;;;3.72;;
51927;SDS011;37953;52.806;18.270;2023-04-25T05:49:36;23.58;;;4.18;;
51927;SDS011;37953;52.806;18.270;2023-04-25T05:52:02;30.08;;;4.20;;
51927;SDS011;37953;52.806;18.270;2023-04-25T05:54:28;26.23;;;3.80;;
51927;SDS011;37953;52.806;18.270;2023-04-25T05:56:55;7.60;;;3.20;;
51927;SDS011;37953;52.806;18.270;2023-04-25T05:59:22;10.65;;;3.13;;
51927;SDS011;37953;52.806;18.270;2023-04-25T06:01:51;4.55;;;2.80;;
51927;SDS011;37953;52.806;18.270;2023-04-25T06:04:17;7.43;;;3.15;;
51927;SDS011;37953;52.806;18.270;2023-04-25T06:06:43;7.95;;;3.65;;
51927;SDS011;37953;52.806;18.270;2023-04-25T06:09:09;10.48;;;3.78;;
51927;SDS011;37953;52.806;18.270;2023-04-25T06:11:35;7.45;;;3.67;;
51927;SDS011;37953;52.806;18.270;2023-04-25T06:14:01;7.03;;;3.60;;
51927;SDS011;37953;52.806;18.270;2023-04-25T06:16:27;16.38;;;4.65;;
51927;SDS011;37953;52.806;18.270;2023-04-25T06:18:53;9.98;;;3.95;;
51927;SDS011;37953;52.806;18.270;2023-04-25T06:21:19;7.18;;;3.65;;
51927;SDS011;37953;52.806;18.270;2023-04-25T06:23:45;8.88;;;4.53;;
51927;SDS011;37953;52.806;18.270;2023-04-25T06:26:11;12.07;;;4.50;;
51927;SDS011;37953;52.806;18.270;2023-04-25T06:28:53;26.45;;;5.25;;
51927;SDS011;37953;52.806;18.270;2023-04-25T06:31:19;22.27;;;4.75;;
51927;SDS011;37953;52.806;18.270;2023-04-25T06:33:45;27.40;;;5.85;;
51927;SDS011;37953;52.806;18.270;2023-04-25T06:36:11;26.95;;;5.60;;
51927;SDS011;37953;52.806;18.270;2023-04-25T06:38:50;17.63;;;5.22;;
51927;SDS011;37953;52.806;18.270;2023-04-25T06:41:17;22.95;;;5.28;;
51927;SDS011;37953;52.806;18.270;2023-04-25T06:43:44;19.00;;;4.75;;
51927;SDS011;37953;52.806;18.270;2023-04-25T06:46:10;20.63;;;4.65;;
51927;SDS011;37953;52.806;18.270;2023-04-25T06:48:36;18.60;;;5.28;;
51927;SDS011;37953;52.806;18.270;2023-04-25T06:51:02;19.90;;;5.80;;
51927;SDS011;37953;52.806;18.270;2023-04-25T06:53:34;28.75;;;6.25;;
51927;SDS011;37953;52.806;18.270;2023-04-25T06:56:01;22.63;;;5.57;;
51927;SDS011;37953;52.806;18.270;2023-04-25T06:58:27;13.15;;;3.45;;
51927;SDS011;37953;52.806;18.270;2023-04-25T07:00:53;9.70;;;3.55;;
51927;SDS011;37953;52.806;18.270;2023-04-25T07:03:19;12.18;;;3.30;;
51927;SDS011;37953;52.806;18.270;2023-04-25T07:05:45;11.07;;;3.90;;
51927;SDS011;37953;52.806;18.270;2023-04-25T07:08:11;9.68;;;3.75;;
51927;SDS011;37953;52.806;18.270;2023-04-25T07:10:37;14.20;;;3.90;;
51927;SDS011;37953;52.806;18.270;2023-04-25T07:13:03;7.60;;;3.03;;
51927;SDS011;37953;52.806;18.270;2023-04-25T07:15:29;11.60;;;3.78;;
51927;SDS011;37953;52.806;18.270;2023-04-25T07:17:55;8.95;;;3.80;;
51927;SDS011;37953;52.806;18.270;2023-04-25T07:20:21;12.27;;;4.10;;
51927;SDS011;37953;52.806;18.270;2023-04-25T07:22:47;12.65;;;4.60;;
51927;SDS011;37953;52.806;18.270;2023-04-25T07:25:13;12.02;;;4.07;;
51927;SDS011;37953;52.806;18.270;2023-04-25T07:59:26;24.55;;;6.20;;
51927;SDS011;37953;52.806;18.270;2023-04-25T08:01:52;21.42;;;6.72;;
51927;SDS011;37953;52.806;18.270;2023-04-25T08:04:18;22.10;;;7.13;;
51927;SDS011;37953;52.806;18.270;2023-04-25T08:06:44;29.70;;;6.45;;
51927;SDS011;37953;52.806;18.270;2023-04-25T08:09:11;18.52;;;5.45;;
51927;SDS011;37953;52.806;18.270;2023-04-25T08:11:37;23.77;;;6.97;;
51927;SDS011;37953;52.806;18.270;2023-04-25T08:14:03;21.85;;;7.72;;
51927;SDS011;37953;52.806;18.270;2023-04-25T08:16:30;28.73;;;8.20;;
51927;SDS011;37953;52.806;18.270;2023-04-25T08:18:57;32.20;;;8.70;;
51927;SDS011;37953;52.806;18.270;2023-04-25T08:21:22;32.35;;;7.88;;
51927;SDS011;37953;52.806;18.270;2023-04-25T08:23:49;25.77;;;7.80;;
51927;SDS011;37953;52.806;18.270;2023-04-25T08:26:15;14.98;;;4.47;;
51927;SDS011;37953;52.806;18.270;2023-04-25T08:28:41;16.58;;;3.92;;
51927;SDS011;37953;52.806;18.270;2023-04-25T08:31:07;20.48;;;3.90;;
51927;SDS011;37953;52.806;18.270;2023-04-25T08:33:33;18.77;;;3.53;;
51927;SDS011;37953;52.806;18.270;2023-04-25T08:36:01;14.75;;;3.60;;
51927;SDS011;37953;52.806;18.270;2023-04-25T08:38:33;15.50;;;3.33;;
51927;SDS011;37953;52.806;18.270;2023-04-25T08:40:59;9.38;;;3.13;;
51927;SDS011;37953;52.806;18.270;2023-04-25T08:43:29;19.35;;;3.47;;
51927;SDS011;37953;52.806;18.270;2023-04-25T08:45:59;16.05;;;3.70;;
51927;SDS011;37953;52.806;18.270;2023-04-25T08:48:27;12.18;;;3.33;;
51927;SDS011;37953;52.806;18.270;2023-04-25T08:50:55;16.80;;;3.35;;
51927;SDS011;37953;52.806;18.270;2023-04-25T08:53:28;19.90;;;3.65;;
51927;SDS011;37953;52.806;18.270;2023-04-25T08:55:59;13.68;;;2.92;;
51927;SDS011;37953;52.806;18.270;2023-04-25T08:58:27;4.47;;;2.83;;
51927;SDS011;37953;52.806;18.270;2023-04-25T09:00:54;6.07;;;3.20;;
51927;SDS011;37953;52.806;18.270;2023-04-25T09:03:20;7.82;;;2.95;;
51927;SDS011;37953;52.806;18.270;2023-04-25T09:05:46;9.48;;;2.60;;
51927;SDS011;37953;52.806;18.270;2023-04-25T09:08:11;5.53;;;2.10;;
51927;SDS011;37953;52.806;18.270;2023-04-25T09:10:38;5.65;;;2.10;;
51927;SDS011;37953;52.806;18.270;2023-04-25T09:15:48;5.85;;;2.20;;
51927;SDS011;37953;52.806;18.270;2023-04-25T09:21:11;5.05;;;2.67;;
51927;SDS011;37953;52.806;18.270;2023-04-25T09:23:39;5.38;;;2.42;;
51927;SDS011;37953;52.806;18.270;2023-04-25T09:26:07;5.00;;;2.92;;
51927;SDS011;37953;52.806;18.270;2023-04-25T09:28:39;5.63;;;2.72;;
51927;SDS011;37953;52.806;18.270;2023-04-25T09:31:05;7.55;;;3.10;;
51927;SDS011;37953;52.806;18.270;2023-04-25T09:33:31;8.45;;;2.70;;
51927;SDS011;37953;52.806;18.270;2023-04-25T09:36:05;9.15;;;2.80;;
51927;SDS011;37953;52.806;18.270;2023-04-25T09:38:43;14.52;;;3.72;;
51927;SDS011;37953;52.806;18.270;2023-04-25T09:41:15;8.13;;;3.17;;
51927;SDS011;37953;52.806;18.270;2023-04-25T09:43:48;8.15;;;2.80;;
51927;SDS011;37953;52.806;18.270;2023-04-25T09:46:16;11.10;;;3.55;;
51927;SDS011;37953;52.806;18.270;2023-04-25T09:48:47;10.35;;;2.88;;
51927;SDS011;37953;52.806;18.270;2023-04-25T09:51:24;22.10;;;3.90;;
51927;SDS011;37953;52.806;18.270;2023-04-25T09:53:51;13.93;;;3.03;;
51927;SDS011;37953;52.806;18.270;2023-04-25T09:56:17;7.72;;;2.50;;
51927;SDS011;37953;52.806;18.270;2023-04-25T09:58:44;8.38;;;2.97;;
51927;SDS011;37953;52.806;18.270;2023-04-25T10:01:12;13.77;;;3.22;;
51927;SDS011;37953;52.806;18.270;2023-04-25T10:03:39;10.23;;;2.80;;
51927;SDS011;37953;52.806;18.270;2023-04-25T10:06:09;6.30;;;2.80;;
51927;SDS011;37953;52.806;18.270;2023-04-25T10:08:39;7.25;;;2.75;;
51927;SDS011;37953;52.806;18.270;2023-04-25T10:11:09;9.98;;;2.75;;
51927;SDS011;37953;52.806;18.270;2023-04-25T10:13:36;9.75;;;3.00;;
51927;SDS011;37953;52.806;18.270;2023-04-25T10:16:03;10.80;;;3.03;;
51927;SDS011;37953;52.806;18.270;2023-04-25T10:18:30;9.55;;;3.08;;
51927;SDS011;37953;52.806;18.270;2023-04-25T10:20:58;7.85;;;2.90;;
51927;SDS011;37953;52.806;18.270;2023-04-25T10:23:32;9.77;;;2.97;;
51927;SDS011;37953;52.806;18.270;2023-04-25T10:26:00;7.00;;;2.20;;
51927;SDS011;37953;52.806;18.270;2023-04-25T10:28:26;4.82;;;1.90;;
51927;SDS011;37953;52.806;18.270;2023-04-25T10:31:09;4.82;;;2.13;;
51927;SDS011;37953;52.806;18.270;2023-04-25T10:36:21;3.33;;;1.80;;
51927;SDS011;37953;52.806;18.270;2023-04-25T10:38:58;3.85;;;1.60;;
51927;SDS011;37953;52.806;18.270;2023-04-25T10:44:26;8.23;;;3.13;;
51927;SDS011;37953;52.806;18.270;2023-04-25T10:47:00;10.50;;;2.65;;
51927;SDS011;37953;52.806;18.270;2023-04-25T10:49:29;4.38;;;1.92;;
51927;SDS011;37953;52.806;18.270;2023-04-25T10:52:10;4.72;;;1.70;;
51927;SDS011;37953;52.806;18.270;2023-04-25T10:57:32;5.15;;;1.88;;
51927;SDS011;37953;52.806;18.270;2023-04-25T11:02:32;6.50;;;1.50;;
51927;SDS011;37953;52.806;18.270;2023-04-25T11:05:03;11.52;;;2.05;;
51927;SDS011;37953;52.806;18.270;2023-04-25T11:07:43;8.68;;;2.10;;
51927;SDS011;37953;52.806;18.270;2023-04-25T11:10:18;9.57;;;2.15;;
51927;SDS011;37953;52.806;18.270;2023-04-25T11:12:45;9.90;;;1.95;;
51927;SDS011;37953;52.806;18.270;2023-04-25T11:15:13;9.40;;;2.15;;
51927;SDS011;37953;52.806;18.270;2023-04-25T11:17:39;12.88;;;2.00;;
51927;SDS011;37953;52.806;18.270;2023-04-25T11:20:06;6.00;;;1.88;;
51927;SDS011;37953;52.806;18.270;2023-04-25T11:25:06;7.40;;;1.58;;
51927;SDS011;37953;52.806;18.270;2023-04-25T11:30:14;4.60;;;1.55;;
51927;SDS011;37953;52.806;18.270;2023-04-25T11:32:41;8.15;;;1.77;;
51927;SDS011;37953;52.806;18.270;2023-04-25T11:35:11;5.93;;;1.60;;
51927;SDS011;37953;52.806;18.270;2023-04-25T11:37:41;9.45;;;2.10;;
51927;SDS011;37953;52.806;18.270;2023-04-25T11:40:08;10.45;;;2.38;;
51927;SDS011;37953;52.806;18.270;2023-04-25T11:42:39;10.80;;;2.60;;
51927;SDS011;37953;52.806;18.270;2023-04-25T11:45:09;13.00;;;2.30;;
51927;SDS011;37953;52.806;18.270;2023-04-25T11:47:36;9.10;;;1.73;;
51927;SDS011;37953;52.806;18.270;2023-04-25T11:50:03;7.38;;;1.95;;
51927;SDS011;37953;52.806;18.270;2023-04-25T11:55:16;7.47;;;2.20;;
51927;SDS011;37953;52.806;18.270;2023-04-25T11:57:45;6.60;;;1.90;;
51927;SDS011;37953;52.806;18.270;2023-04-25T12:00:16;4.78;;;1.92;;
51927;SDS011;37953;52.806;18.270;2023-04-25T12:02:44;7.43;;;2.00;;
51927;SDS011;37953;52.806;18.270;2023-04-25T12:05:12;7.80;;;1.80;;
51927;SDS011;37953;52.806;18.270;2023-04-25T12:07:46;9.32;;;2.20;;
51927;SDS011;37953;52.806;18.270;2023-04-25T12:10:16;10.07;;;2.42;;
51927;SDS011;37953;52.806;18.270;2023-04-25T12:12:49;5.05;;;2.33;;
51927;SDS011;37953;52.806;18.270;2023-04-25T12:15:16;8.85;;;2.65;;
51927;SDS011;37953;52.806;18.270;2023-04-25T12:17:49;8.88;;;2.58;;
51927;SDS011;37953;52.806;18.270;2023-04-25T12:20:20;11.00;;;2.65;;
51927;SDS011;37953;52.806;18.270;2023-04-25T12:22:49;7.35;;;2.20;;
51927;SDS011;37953;52.806;18.270;2023-04-25T12:28:12;5.50;;;2.20;;
51927;SDS011;37953;52.806;18.270;2023-04-25T12:33:30;5.40;;;2.63;;
51927;SDS011;37953;52.806;18.270;2023-04-25T12:36:01;4.88;;;2.22;;
51927;SDS011;37953;52.806;18.270;2023-04-25T12:38:42;3.70;;;1.92;;
51927;SDS011;37953;52.806;18.270;2023-04-25T12:41:08;4.07;;;2.40;;
51927;SDS011;37953;52.806;18.270;2023-04-25T12:43:34;7.05;;;2.78;;
51927;SDS011;37953;52.806;18.270;2023-04-25T12:46:00;8.45;;;2.30;;
51927;SDS011;37953;52.806;18.270;2023-04-25T12:48:27;4.53;;;2.13;;
51927;SDS011;37953;52.806;18.270;2023-04-25T12:50:52;3.58;;;2.20;;
51927;SDS011;37953;52.806;18.270;2023-04-25T12:53:19;7.60;;;2.05;;
51927;SDS011;37953;52.806;18.270;2023-04-25T12:55:47;4.18;;;2.22;;
51927;SDS011;37953;52.806;18.270;2023-04-25T12:58:14;4.00;;;2.50;;
51927;SDS011;37953;52.806;18.270;2023-04-25T13:00:41;5.30;;;2.20;;
51927;SDS011;37953;52.806;18.270;2023-04-25T13:03:08;8.40;;;2.25;;
51927;SDS011;37953;52.806;18.270;2023-04-25T13:05:34;4.40;;;2.10;;
51927;SDS011;37953;52.806;18.270;2023-04-25T13:08:01;3.97;;;2.13;;
51927;SDS011;37953;52.806;18.270;2023-04-25T13:10:26;3.45;;;1.80;;
51927;SDS011;37953;52.806;18.270;2023-04-25T13:12:52;7.32;;;2.00;;
51927;SDS011;37953;52.806;18.270;2023-04-25T13:15:19;4.53;;;2.05;;
51927;SDS011;37953;52.806;18.270;2023-04-25T13:17:45;4.43;;;1.92;;
51927;SDS011;37953;52.806;18.270;2023-04-25T13:20:11;4.55;;;1.80;;
51927;SDS011;37953;52.806;18.270;2023-04-25T13:22:40;6.18;;;2.22;;
51927;SDS011;37953;52.806;18.270;2023-04-25T13:25:06;4.03;;;2.10;;
51927;SDS011;37953;52.806;18.270;2023-04-25T13:27:34;14.43;;;2.15;;
51927;SDS011;37953;52.806;18.270;2023-04-25T13:30:01;9.38;;;2.10;;
51927;SDS011;37953;52.806;18.270;2023-04-25T13:32:33;15.50;;;2.30;;
51927;SDS011;37953;52.806;18.270;2023-04-25T13:35:08;18.70;;;2.25;;
51927;SDS011;37953;52.806;18.270;2023-04-25T13:37:36;13.05;;;2.22;;
51927;SDS011;37953;52.806;18.270;2023-04-25T13:40:06;18.67;;;2.33;;
51927;SDS011;37953;52.806;18.270;2023-04-25T13:42:39;12.60;;;2.67;;
51927;SDS011;37953;52.806;18.270;2023-04-25T13:45:06;12.32;;;2.67;;
51927;SDS011;37953;52.806;18.270;2023-04-25T13:47:33;12.95;;;2.78;;
51927;SDS011;37953;52.806;18.270;2023-04-25T13:49:59;15.55;;;2.58;;
51927;SDS011;37953;52.806;18.270;2023-04-25T13:52:28;17.35;;;2.45;;
51927;SDS011;37953;52.806;18.270;2023-04-25T13:54:54;20.13;;;2.53;;
51927;SDS011;37953;52.806;18.270;2023-04-25T13:57:20;6.82;;;2.40;;
51927;SDS011;37953;52.806;18.270;2023-04-25T13:59:46;7.88;;;2.53;;
51927;SDS011;37953;52.806;18.270;2023-04-25T14:02:12;20.17;;;2.83;;
51927;SDS011;37953;52.806;18.270;2023-04-25T14:04:39;10.25;;;2.53;;
51927;SDS011;37953;52.806;18.270;2023-04-25T14:07:05;10.50;;;3.03;;
51927;SDS011;37953;52.806;18.270;2023-04-25T14:09:30;12.90;;;3.25;;
51927;SDS011;37953;52.806;18.270;2023-04-25T14:11:57;5.88;;;2.63;;
51927;SDS011;37953;52.806;18.270;2023-04-25T14:14:22;9.35;;;2.83;;
51927;SDS011;37953;52.806;18.270;2023-04-25T14:16:49;9.70;;;2.70;;
51927;SDS011;37953;52.806;18.270;2023-04-25T14:19:16;10.30;;;2.92;;
51927;SDS011;37953;52.806;18.270;2023-04-25T14:21:42;12.23;;;3.42;;
51927;SDS011;37953;52.806;18.270;2023-04-25T14:24:09;9.60;;;2.90;;
51927;SDS011;37953;52.806;18.270;2023-04-25T14:26:42;11.57;;;3.17;;
51927;SDS011;37953;52.806;18.270;2023-04-25T14:31:42;20.25;;;3.45;;
51927;SDS011;37953;52.806;18.270;2023-04-25T14:34:08;14.63;;;3.45;;
51927;SDS011;37953;52.806;18.270;2023-04-25T14:36:35;16.17;;;3.13;;
51927;SDS011;37953;52.806;18.270;2023-04-25T14:39:02;13.85;;;3.05;;
51927;SDS011;37953;52.806;18.270;2023-04-25T14:41:28;12.45;;;2.67;;
51927;SDS011;37953;52.806;18.270;2023-04-25T14:43:54;13.25;;;2.53;;
51927;SDS011;37953;52.806;18.270;2023-04-25T14:46:22;24.73;;;9.05;;
51927;SDS011;37953;52.806;18.270;2023-04-25T14:48:49;38.78;;;12.20;;
51927;SDS011;37953;52.806;18.270;2023-04-25T14:51:15;14.10;;;3.67;;
51927;SDS011;37953;52.806;18.270;2023-04-25T14:53:41;14.90;;;2.22;;
51927;SDS011;37953;52.806;18.270;2023-04-25T14:56:07;18.20;;;2.22;;
51927;SDS011;37953;52.806;18.270;2023-04-25T14:58:34;5.60;;;1.40;;
51927;SDS011;37953;52.806;18.270;2023-04-25T15:01:00;5.10;;;1.50;;
51927;SDS011;37953;52.806;18.270;2023-04-25T15:03:26;8.98;;;1.77;;
51927;SDS011;37953;52.806;18.270;2023-04-25T15:05:59;17.58;;;4.93;;
51927;SDS011;37953;52.806;18.270;2023-04-25T15:08:25;55.88;;;23.10;;
51927;SDS011;37953;52.806;18.270;2023-04-25T15:10:51;59.53;;;16.15;;
51927;SDS011;37953;52.806;18.270;2023-04-25T15:13:18;15.15;;;6.05;;
51927;SDS011;37953;52.806;18.270;2023-04-25T15:15:44;11.18;;;2.40;;
51927;SDS011;37953;52.806;18.270;2023-04-25T15:18:19;13.05;;;1.90;;
51927;SDS011;37953;52.806;18.270;2023-04-25T15:20:48;10.05;;;1.85;;
51927;SDS011;37953;52.806;18.270;2023-04-25T15:23:14;9.63;;;1.92;;
51927;SDS011;37953;52.806;18.270;2023-04-25T15:25:40;8.10;;;1.83;;
51927;SDS011;37953;52.806;18.270;2023-04-25T15:28:06;14.52;;;1.88;;
51927;SDS011;37953;52.806;18.270;2023-04-25T15:30:35;9.93;;;1.67;;
51927;SDS011;37953;52.806;18.270;2023-04-25T15:33:01;10.20;;;1.90;;
51927;SDS011;37953;52.806;18.270;2023-04-25T15:35:27;9.82;;;2.17;;
51927;SDS011;37953;52.806;18.270;2023-04-25T15:37:53;10.07;;;2.05;;
51927;SDS011;37953;52.806;18.270;2023-04-25T15:40:20;11.40;;;2.40;;
51927;SDS011;37953;52.806;18.270;2023-04-25T15:42:48;11.68;;;2.42;;
51927;SDS011;37953;52.806;18.270;2023-04-25T15:47:45;13.23;;;2.13;;
51927;SDS011;37953;52.806;18.270;2023-04-25T15:50:11;13.90;;;2.30;;
51927;SDS011;37953;52.806;18.270;2023-04-25T15:52:37;13.55;;;2.45;;
51927;SDS011;37953;52.806;18.270;2023-04-25T15:55:03;11.20;;;2.30;;
51927;SDS011;37953;52.806;18.270;2023-04-25T15:57:31;48.50;;;4.80;;
51927;SDS011;37953;52.806;18.270;2023-04-25T15:59:58;7.07;;;2.67;;
51927;SDS011;37953;52.806;18.270;2023-04-25T16:02:24;7.13;;;2.60;;
51927;SDS011;37953;52.806;18.270;2023-04-25T16:04:51;6.07;;;2.90;;